Time;durP1;ratioP1;P1;durP2;ratioP2;P2;SDS_P1;SDS_P2;PMS_P1;PMS_P2;Temp;Humidity;BMP_temperature;BMP_pressure;BME280_temperature;BME280_humidity;BME280_pressure;Samples;Min_cycle;Max_cycle;Signal;HPM_P1;HPM_P2
2022/04/22 00:02:18;;;;;;;0.20;0.20;;;7.90;74.80;;;;;;5052089;28;20029;-75
2022/04/22 00:04:44;;;;;;;0.40;0.40;;;8.00;75.00;;;;;;5051898;28;20143;-75
2022/04/22 00:07:10;;;;;;;0.20;0.20;;;8.10;74.30;;;;;;5033766;28;20059;-74
2022/04/22 00:09:36;;;;;;;0.25;0.25;;;8.00;74.10;;;;;;5033914;28;20111;-73
2022/04/22 00:12:02;;;;;;;0.57;0.57;;;8.10;74.70;;;;;;5051319;28;20494;-74
2022/04/22 00:14:27;;;;;;;0.20;0.20;;;8.20;74.10;;;;;;5051866;28;20022;-74
2022/04/22 00:16:53;;;;;;;0.30;0.30;;;8.10;73.60;;;;;;5051533;28;20071;-73
2022/04/22 00:19:19;;;;;;;0.30;0.30;;;8.00;73.80;;;;;;5051762;28;20029;-73
2022/04/22 00:21:47;;;;;;;0.20;0.20;;;8.00;74.70;;;;;;5033859;28;20370;-74
2022/04/22 00:24:14;;;;;;;0.30;0.30;;;7.90;75.20;;;;;;5033804;28;20025;-73
2022/04/22 00:26:40;;;;;;;0.20;0.20;;;8.00;75.30;;;;;;5017204;28;20029;-74
2022/04/22 00:29:07;;;;;;;0.30;0.30;;;8.10;75.40;;;;;;5033951;28;20091;-74
2022/04/22 00:31:33;;;;;;;0.30;0.30;;;8.20;74.60;;;;;;5033711;28;20031;-74
2022/04/22 00:33:59;;;;;;;0.90;0.90;;;8.30;74.60;;;;;;5037600;28;20022;-73
2022/04/22 00:36:25;;;;;;;0.20;0.20;;;8.30;74.30;;;;;;5055311;28;20059;-74
2022/04/22 00:38:51;;;;;;;3.55;3.30;;;8.30;74.90;;;;;;5037527;28;20058;-74
2022/04/22 00:41:17;;;;;;;0.30;0.30;;;8.10;73.90;;;;;;5055382;28;20053;-74
2022/04/22 00:43:45;;;;;;;0.30;0.30;;;7.70;75.30;;;;;;5037728;28;20063;-74
2022/04/22 00:46:12;;;;;;;0.30;0.30;;;7.60;76.60;;;;;;5055211;28;20029;-73
2022/04/22 00:48:37;;;;;;;1.75;0.60;;;7.40;76.80;;;;;;5055095;28;20044;-74
2022/04/22 00:51:05;;;;;;;3.97;0.75;;;7.20;76.80;;;;;;5055041;28;20082;-74
2022/04/22 00:53:32;;;;;;;0.40;0.40;;;7.30;77.50;;;;;;5055201;28;20057;-74
2022/04/22 00:55:58;;;;;;;0.30;0.30;;;7.40;77.40;;;;;;5037078;28;20553;-74
2022/04/22 00:58:24;;;;;;;0.30;0.30;;;7.20;76.40;;;;;;5055160;28;20064;-74
2022/04/22 01:00:50;;;;;;;0.63;0.52;;;7.00;77.20;;;;;;5055134;28;20033;-73
2022/04/22 01:03:16;;;;;;;0.30;0.30;;;6.70;78.70;;;;;;5055054;28;20029;-73
2022/04/22 01:11:13;;;;;;;0.30;0.30;;;6.50;81.40;;;;;;5054757;28;20025;-73
2022/04/22 01:13:39;;;;;;;1.10;1.10;;;6.40;80.80;;;;;;5036551;28;20044;-74
2022/04/22 01:16:04;;;;;;;0.20;0.20;;;6.50;81.10;;;;;;5036852;28;20029;-74
2022/04/22 01:18:30;;;;;;;0.30;0.30;;;6.60;80.90;;;;;;5054968;28;20017;-74
2022/04/22 01:21:03;;;;;;;0.20;0.20;;;6.90;80.70;;;;;;5036898;28;20104;-74
2022/04/22 01:23:29;;;;;;;0.85;0.85;;;7.20;80.10;;;;;;5036902;28;20036;-73
2022/04/22 01:25:56;;;;;;;0.20;0.20;;;7.30;79.50;;;;;;5036353;28;20025;-74
2022/04/22 01:28:23;;;;;;;0.30;0.30;;;7.20;78.60;;;;;;5054543;28;20502;-74
2022/04/22 01:30:55;;;;;;;0.20;0.20;;;7.20;78.70;;;;;;5054475;28;20100;-73
2022/04/22 01:33:20;;;;;;;0.30;0.30;;;7.10;78.70;;;;;;5054401;28;20021;-73
2022/04/22 01:35:46;;;;;;;0.30;0.30;;;7.10;79.60;;;;;;5036309;28;20078;-73
2022/04/22 01:38:12;;;;;;;0.63;0.63;;;7.00;80.20;;;;;;5019929;28;20021;-74
2022/04/22 01:40:37;;;;;;;0.30;0.30;;;7.00;80.50;;;;;;5036440;28;20444;-74
2022/04/22 01:43:04;;;;;;;0.30;0.30;;;7.00;80.40;;;;;;5053757;28;20025;-74
2022/04/22 01:45:31;;;;;;;0.30;0.30;;;7.10;79.70;;;;;;5053942;28;20025;-74
2022/04/22 01:47:57;;;;;;;0.30;0.30;;;7.00;79.60;;;;;;5054039;28;20083;-74
2022/04/22 01:50:23;;;;;;;0.20;0.20;;;6.90;80.20;;;;;;5054222;28;20056;-73
2022/04/22 01:52:49;;;;;;;0.60;0.60;;;6.90;80.00;;;;;;5054013;28;20052;-74
2022/04/22 01:55:15;;;;;;;0.45;0.45;;;7.00;80.00;;;;;;5053881;28;20017;-74
2022/04/22 01:57:41;;;;;;;0.30;0.30;;;6.80;79.40;;;;;;5053786;28;20022;-74
2022/04/22 02:00:08;;;;;;;0.30;0.30;;;6.80;79.70;;;;;;5053919;28;20112;-74
2022/04/22 02:02:34;;;;;;;0.30;0.30;;;6.50;80.60;;;;;;5036084;28;20029;-74
2022/04/22 02:05:00;;;;;;;0.30;0.30;;;6.20;81.20;;;;;;5036146;28;20396;-74
2022/04/22 02:07:26;;;;;;;0.20;0.20;;;6.20;81.90;;;;;;5019481;28;20029;-74
2022/04/22 02:09:52;;;;;;;0.20;0.20;;;6.20;82.20;;;;;;5035806;28;20066;-74
2022/04/22 02:12:18;;;;;;;0.65;0.65;;;6.30;83.20;;;;;;5035560;28;20396;-74
2022/04/22 02:14:43;;;;;;;0.43;0.43;;;6.40;82.00;;;;;;5054018;28;20028;-74
2022/04/22 02:17:09;;;;;;;1.33;1.23;;;6.50;83.30;;;;;;5053384;28;20021;-74
2022/04/22 02:19:35;;;;;;;0.50;0.50;;;6.50;82.00;;;;;;5053517;28;20027;-74
2022/04/22 02:22:01;;;;;;;0.40;0.40;;;6.70;81.50;;;;;;5035507;28;20071;-74
2022/04/22 02:24:27;;;;;;;0.30;0.30;;;6.80;82.30;;;;;;5035546;28;20441;-74
2022/04/22 02:29:37;;;;;;;0.28;0.28;;;6.70;81.40;;;;;;5035538;28;20033;-74
2022/04/22 02:32:03;;;;;;;0.47;0.47;;;6.60;81.20;;;;;;5018823;28;20028;-73
2022/04/22 02:34:29;;;;;;;0.20;0.20;;;6.70;82.40;;;;;;5018932;28;20029;-74
2022/04/22 02:36:55;;;;;;;0.25;0.25;;;6.70;82.70;;;;;;5053101;28;20029;-74
2022/04/22 02:39:21;;;;;;;0.40;0.40;;;6.80;82.10;;;;;;5035369;28;20033;-73
2022/04/22 02:47:15;;;;;;;0.30;0.30;;;6.60;81.20;;;;;;5034825;28;20029;-74
2022/04/22 02:49:44;;;;;;;1.05;1.05;;;6.60;83.20;;;;;;5052801;28;20047;-74
2022/04/22 02:52:14;;;;;;;0.30;0.30;;;6.60;83.10;;;;;;5052767;28;20048;-74
2022/04/22 02:54:40;;;;;;;1.85;1.02;;;6.50;83.10;;;;;;5051913;28;20055;-74
2022/04/22 02:57:07;;;;;;;0.30;0.30;;;6.50;83.40;;;;;;5052280;28;20029;-74
2022/04/22 02:59:34;;;;;;;0.20;0.20;;;6.60;83.50;;;;;;5034967;28;20029;-74
2022/04/22 03:01:59;;;;;;;3.20;1.65;;;6.70;83.40;;;;;;5053003;28;20052;-74
2022/04/22 03:04:26;;;;;;;0.28;0.28;;;6.70;83.00;;;;;;5052699;28;20029;-74
2022/04/22 03:06:52;;;;;;;3.85;2.17;;;6.80;83.20;;;;;;5052736;28;20074;-74
2022/04/22 03:09:17;;;;;;;0.63;0.63;;;6.80;83.50;;;;;;5052708;28;20028;-74
2022/04/22 03:11:43;;;;;;;0.45;0.45;;;6.60;83.80;;;;;;5052536;28;20477;-74
2022/04/22 03:14:09;;;;;;;0.85;0.82;;;6.60;84.80;;;;;;5018272;28;20036;-74
2022/04/22 03:16:35;;;;;;;0.38;0.38;;;6.60;84.50;;;;;;5052288;28;20472;-74
2022/04/22 03:19:01;;;;;;;0.40;0.40;;;6.70;84.30;;;;;;5052529;28;20021;-74
2022/04/22 03:21:26;;;;;;;0.40;0.40;;;6.80;84.10;;;;;;5052441;28;20025;-74
2022/04/22 03:23:53;;;;;;;0.65;0.65;;;6.80;83.50;;;;;;5052435;28;20208;-74
2022/04/22 03:26:18;;;;;;;0.30;0.30;;;6.50;84.70;;;;;;5034452;28;20385;-74
2022/04/22 03:28:45;;;;;;;0.80;0.80;;;6.30;85.80;;;;;;5052370;28;20028;-74
2022/04/22 03:31:11;;;;;;;6.55;1.15;;;6.40;86.30;;;;;;5052168;28;20080;-74
2022/04/22 03:33:37;;;;;;;1.13;1.13;;;6.50;86.00;;;;;;5034457;28;20028;-73
2022/04/22 03:36:03;;;;;;;0.30;0.30;;;6.40;85.80;;;;;;5051976;28;20025;-73
2022/04/22 03:38:29;;;;;;;0.30;0.30;;;6.40;85.60;;;;;;5052149;28;20423;-73
2022/04/22 03:40:55;;;;;;;0.40;0.40;;;6.40;85.50;;;;;;5017757;28;20074;-74
2022/04/22 03:43:22;;;;;;;0.30;0.30;;;6.50;86.40;;;;;;5052095;28;20075;-74
2022/04/22 03:45:48;;;;;;;0.35;0.35;;;6.60;86.10;;;;;;5034045;28;20029;-74
2022/04/22 03:48:14;;;;;;;0.30;0.30;;;6.60;84.30;;;;;;5051858;28;20033;-74
2022/04/22 03:50:40;;;;;;;0.40;0.40;;;6.60;83.50;;;;;;5033905;28;20029;-73
2022/04/22 03:53:10;;;;;;;8.80;8.05;;;6.40;82.70;;;;;;5034054;28;20025;-73
2022/04/22 03:55:35;;;;;;;0.40;0.40;;;6.40;82.90;;;;;;5033771;28;20036;-74
2022/04/22 03:58:10;;;;;;;0.60;0.60;;;6.10;82.80;;;;;;5051962;28;20021;-74
2022/04/22 04:00:52;;;;;;;0.30;0.30;;;5.80;84.60;;;;;;5034113;28;20473;-73
2022/04/22 04:03:19;;;;;;;0.45;0.45;;;5.70;86.20;;;;;;5033997;28;20120;-74
2022/04/22 04:05:50;;;;;;;0.70;0.70;;;5.60;86.70;;;;;;5051971;28;20074;-74
2022/04/22 04:08:24;;;;;;;0.30;0.30;;;5.80;87.70;;;;;;5038150;28;20025;-73
2022/04/22 04:16:19;;;;;;;0.43;0.43;;;6.00;87.90;;;;;;5055633;28;20024;-74
2022/04/22 04:18:45;;;;;;;0.40;0.40;;;6.00;86.60;;;;;;5055810;28;20025;-74
2022/04/22 04:23:56;;;;;;;2.10;1.67;;;6.10;87.10;;;;;;5055822;28;20048;-74
2022/04/22 04:26:25;;;;;;;0.30;0.30;;;6.10;86.50;;;;;;5037727;28;20048;-74
2022/04/22 04:28:51;;;;;;;0.75;0.75;;;5.90;86.30;;;;;;5037653;28;20119;-74
2022/04/22 04:31:18;;;;;;;0.40;0.40;;;5.70;86.70;;;;;;5037599;28;20043;-74
2022/04/22 04:33:44;;;;;;;0.38;0.38;;;5.60;86.60;;;;;;5037894;28;20028;-74
2022/04/22 04:36:11;;;;;;;1.00;0.70;;;5.40;87.70;;;;;;5055284;28;20051;-74
2022/04/22 04:38:38;;;;;;;1.33;1.23;;;5.20;87.80;;;;;;5037650;28;20028;-74
2022/04/22 04:41:07;;;;;;;0.30;0.30;;;5.30;90.00;;;;;;5037428;28;20109;-74
2022/04/22 04:43:34;;;;;;;0.30;0.30;;;5.30;90.40;;;;;;5037305;28;20038;-74
2022/04/22 04:46:00;;;;;;;0.40;0.40;;;5.40;90.60;;;;;;5037269;28;20043;-74
2022/04/22 04:48:26;;;;;;;0.68;0.68;;;5.80;90.80;;;;;;5055153;28;20086;-73
2022/04/22 04:50:54;;;;;;;0.68;0.68;;;5.90;89.50;;;;;;5055218;28;20021;-74
2022/04/22 04:53:21;;;;;;;0.95;0.95;;;5.70;88.70;;;;;;5055048;28;20106;-74
2022/04/22 04:55:47;;;;;;;0.43;0.43;;;5.80;90.40;;;;;;5054875;28;20053;-74
2022/04/22 04:58:13;;;;;;;0.65;0.65;;;6.00;89.80;;;;;;5020684;28;20017;-74
2022/04/22 05:00:39;;;;;;;0.30;0.30;;;6.10;88.20;;;;;;5037253;28;20468;-74
2022/04/22 05:03:05;;;;;;;1.30;1.20;;;6.10;89.80;;;;;;5037094;28;20036;-74
2022/04/22 05:05:31;;;;;;;0.40;0.40;;;6.00;89.20;;;;;;5020627;28;20052;-74
2022/04/22 05:07:59;;;;;;;0.43;0.43;;;6.10;89.60;;;;;;5054975;28;20033;-73
2022/04/22 05:10:27;;;;;;;1.27;1.10;;;6.20;88.90;;;;;;5036909;28;20120;-74
2022/04/22 05:12:53;;;;;;;3.70;1.40;;;6.10;89.00;;;;;;5037036;28;20033;-74
2022/04/22 05:15:22;;;;;;;0.40;0.40;;;6.00;89.40;;;;;;5054808;28;20021;-73
2022/04/22 05:17:48;;;;;;;0.30;0.30;;;5.90;90.60;;;;;;5035860;28;20526;-74
2022/04/22 05:20:16;;;;;;;0.30;0.30;;;5.90;90.60;;;;;;5036825;28;20473;-73
2022/04/22 05:22:42;;;;;;;0.30;0.30;;;5.60;90.60;;;;;;5036919;28;20102;-73
2022/04/22 05:25:10;;;;;;;0.30;0.30;;;5.70;92.10;;;;;;5053415;28;20100;-74
2022/04/22 05:27:36;;;;;;;8.20;1.98;;;5.80;93.30;;;;;;5045477;28;20357;-74
2022/04/22 05:32:49;;;;;;;0.30;0.30;;;6.20;93.80;;;;;;5028654;28;20086;-74
2022/04/22 05:35:16;;;;;;;0.30;0.30;;;6.30;93.90;;;;;;5041430;28;20427;-73
2022/04/22 05:37:52;;;;;;;0.28;0.28;;;6.40;93.70;;;;;;5053444;28;20025;-73
2022/04/22 05:40:22;;;;;;;0.85;0.85;;;6.50;93.10;;;;;;5068679;28;20055;-74
2022/04/22 05:42:50;;;;;;;0.30;0.30;;;6.40;92.40;;;;;;5053992;28;20048;-74
2022/04/22 05:45:17;;;;;;;0.70;0.70;;;6.20;93.00;;;;;;5019461;28;20025;-74
2022/04/22 05:47:43;;;;;;;0.30;0.30;;;6.20;94.40;;;;;;5065398;28;20024;-74
2022/04/22 05:50:11;;;;;;;0.40;0.40;;;6.10;95.30;;;;;;5052525;28;20048;-74
2022/04/22 05:52:37;;;;;;;0.30;0.30;;;6.10;95.50;;;;;;5052657;28;20119;-73
2022/04/22 05:55:16;;;;;;;0.30;0.30;;;6.20;97.40;;;;;;5051728;28;20017;-74
2022/04/22 05:57:43;;;;;;;0.20;0.20;;;6.30;97.20;;;;;;5053888;28;20024;-74
2022/04/22 06:00:12;;;;;;;0.38;0.38;;;6.40;97.30;;;;;;5053294;28;20021;-74
2022/04/22 06:02:39;;;;;;;0.93;0.93;;;6.60;97.50;;;;;;5053700;28;20098;-73
2022/04/22 06:05:05;;;;;;;0.85;0.85;;;6.70;98.10;;;;;;5043088;28;20021;-73
2022/04/22 06:07:31;;;;;;;0.43;0.43;;;6.70;98.30;;;;;;5062073;28;20171;-74
2022/04/22 06:12:41;;;;;;;0.30;0.30;;;7.10;98.40;;;;;;5033292;28;20030;-74
2022/04/22 06:15:08;;;;;;;0.32;0.32;;;7.00;98.30;;;;;;5048879;28;20033;-74
2022/04/22 06:17:33;;;;;;;1.27;1.17;;;6.90;99.90;;;;;;5034794;28;20021;-74
2022/04/22 06:20:00;;;;;;;4.97;4.68;;;7.00;99.90;;;;;;5039727;28;20048;-74
2022/04/22 06:22:26;;;;;;;0.20;0.20;;;7.10;99.90;;;;;;5062057;28;20154;-74
2022/04/22 06:24:53;;;;;;;0.95;0.95;;;7.20;99.40;;;;;;5051676;28;20556;-74
2022/04/22 06:27:38;;;;;;;0.22;0.22;;;7.30;99.90;;;;;;5052105;28;20021;-74
2022/04/22 06:30:11;;;;;;;0.88;0.88;;;7.30;99.90;;;;;;5040066;28;20029;-74
2022/04/22 06:32:40;;;;;;;0.47;0.40;;;7.20;99.90;;;;;;5053020;28;20037;-74
2022/04/22 06:35:07;;;;;;;0.40;0.40;;;7.50;99.90;;;;;;5052815;28;20021;-73
2022/04/22 06:37:39;;;;;;;0.38;0.38;;;7.60;99.30;;;;;;5057171;28;20045;-74
2022/04/22 06:45:49;;;;;;;0.22;0.22;;;7.90;98.30;;;;;;5054821;28;20078;-74
2022/04/22 06:48:30;;;;;;;5.72;1.27;;;8.00;98.00;;;;;;5034704;28;20120;-74
2022/04/22 06:50:57;;;;;;;2.45;1.75;;;8.00;97.90;;;;;;5034643;28;20025;-74
2022/04/22 06:53:23;;;;;;;0.80;0.80;;;8.10;98.20;;;;;;5051249;28;20025;-74
2022/04/22 06:55:52;;;;;;;0.70;0.70;;;8.30;98.00;;;;;;5051772;28;20400;-74
2022/04/22 06:58:20;;;;;;;0.30;0.30;;;8.30;96.90;;;;;;5034534;28;20380;-74
2022/04/22 07:00:47;;;;;;;0.57;0.57;;;8.30;97.30;;;;;;5037517;28;20717;-75
2022/04/22 07:03:15;;;;;;;3.97;1.40;;;8.20;98.60;;;;;;5016391;28;20116;-75
2022/04/22 07:05:42;;;;;;;1.98;0.73;;;8.30;98.40;;;;;;5051860;28;20054;-75
2022/04/22 07:08:13;;;;;;;1.65;1.15;;;8.20;98.80;;;;;;5052294;28;20028;-75
2022/04/22 07:10:42;;;;;;;0.40;0.40;;;8.10;99.40;;;;;;5038119;28;20021;-74
2022/04/22 07:13:09;;;;;;;0.90;0.90;;;8.20;99.90;;;;;;5039858;28;20037;-75
2022/04/22 07:15:35;;;;;;;0.60;0.60;;;8.30;99.60;;;;;;5028840;28;20036;-75
2022/04/22 07:18:02;;;;;;;0.38;0.38;;;8.30;99.10;;;;;;5030926;28;20405;-75
2022/04/22 07:20:28;;;;;;;2.20;1.73;;;8.00;99.90;;;;;;5029712;28;20024;-75
2022/04/22 07:22:54;;;;;;;0.52;0.52;;;8.00;99.90;;;;;;5027219;28;20048;-75
2022/04/22 07:25:21;;;;;;;0.20;0.20;;;8.00;99.90;;;;;;5040252;28;20083;-75
2022/04/22 07:27:48;;;;;;;0.20;0.20;;;8.20;99.90;;;;;;5038906;28;20116;-75
2022/04/22 07:30:19;;;;;;;3.72;2.22;;;8.20;99.90;;;;;;5030717;28;20037;-75
2022/04/22 07:32:48;;;;;;;8.77;7.43;;;8.30;99.90;;;;;;5030846;28;20025;-75
2022/04/22 07:35:16;;;;;;;0.20;0.20;;;8.50;99.90;;;;;;5012740;28;20040;-75
2022/04/22 07:37:45;;;;;;;0.93;0.93;;;8.30;99.90;;;;;;5039349;28;20838;-75
2022/04/22 07:40:12;;;;;;;1.75;1.33;;;8.30;99.90;;;;;;5040013;28;20028;-75
2022/04/22 07:42:42;;;;;;;0.20;0.20;;;8.50;99.90;;;;;;5029204;28;20043;-74
2022/04/22 07:47:53;;;;;;;0.28;0.28;;;8.60;99.90;;;;;;5039775;28;20029;-75
2022/04/22 07:50:19;;;;;;;0.20;0.20;;;8.50;99.90;;;;;;5039418;28;20052;-75
2022/04/22 07:52:46;;;;;;;0.45;0.45;;;8.70;99.90;;;;;;5029591;28;20508;-75
2022/04/22 07:55:13;;;;;;;0.32;0.32;;;8.90;99.90;;;;;;5013539;28;20071;-75
2022/04/22 07:57:40;;;;;;;1.23;0.82;;;8.90;99.60;;;;;;5030303;28;20033;-75
2022/04/22 08:00:07;;;;;;;2.90;1.85;;;9.20;99.20;;;;;;5039613;28;20532;-75
2022/04/22 08:02:34;;;;;;;0.57;0.57;;;9.30;99.10;;;;;;5039811;28;20380;-75
2022/04/22 08:04:59;;;;;;;0.65;0.65;;;9.30;99.60;;;;;;5039983;28;20091;-75
2022/04/22 08:07:25;;;;;;;0.47;0.47;;;9.50;98.40;;;;;;5039561;28;20036;-74
2022/04/22 08:09:51;;;;;;;0.57;0.55;;;9.60;98.40;;;;;;5040165;28;20427;-75
2022/04/22 08:12:19;;;;;;;0.90;0.90;;;9.60;97.80;;;;;;5030064;28;20048;-74
2022/04/22 08:14:46;;;;;;;0.80;0.68;;;9.60;98.50;;;;;;5039712;28;20559;-75
2022/04/22 08:17:12;;;;;;;0.20;0.20;;;9.60;97.90;;;;;;5028820;28;20022;-73
2022/04/22 08:19:39;;;;;;;3.13;1.13;;;9.60;97.50;;;;;;5040165;28;20059;-73
2022/04/22 08:22:05;;;;;;;0.63;0.63;;;9.70;98.20;;;;;;5039358;28;20032;-72
2022/04/22 08:24:31;;;;;;;0.20;0.20;;;9.80;97.90;;;;;;5012107;28;20037;-74
2022/04/22 08:26:58;;;;;;;0.47;0.47;;;10.10;97.00;;;;;;5038881;28;20040;-73
2022/04/22 08:29:24;;;;;;;4.82;3.90;;;10.20;96.70;;;;;;5039788;28;20155;-74
2022/04/22 08:31:52;;;;;;;0.20;0.20;;;10.20;97.20;;;;;;5038751;28;20033;-74
2022/04/22 08:34:19;;;;;;;0.43;0.43;;;10.20;96.60;;;;;;5029308;28;20032;-74
2022/04/22 08:36:47;;;;;;;0.47;0.47;;;10.20;96.10;;;;;;5027191;28;20029;-73
2022/04/22 08:39:16;;;;;;;0.30;0.30;;;10.10;96.20;;;;;;5014289;28;20423;-74
2022/04/22 08:41:42;;;;;;;0.40;0.40;;;10.30;96.40;;;;;;5012646;28;20035;-74
2022/04/22 08:44:12;;;;;;;1.63;1.25;;;10.30;96.00;;;;;;5029303;28;20037;-74
2022/04/22 08:52:10;;;;;;;0.70;0.70;;;10.90;95.40;;;;;;5038972;28;20029;-74
2022/04/22 08:54:42;;;;;;;0.60;0.60;;;10.90;94.60;;;;;;5042602;28;20028;-74
2022/04/22 08:57:07;;;;;;;9.73;5.82;;;11.00;94.60;;;;;;5030484;28;20029;-73
2022/04/22 08:59:33;;;;;;;2.35;1.05;;;11.00;94.20;;;;;;5043694;28;20598;-73
2022/04/22 09:01:59;;;;;;;0.43;0.43;;;11.00;94.40;;;;;;5015986;28;20033;-73
2022/04/22 09:04:26;;;;;;;0.20;0.20;;;11.20;93.80;;;;;;5015525;28;20167;-73
2022/04/22 09:06:53;;;;;;;12.63;2.63;;;11.20;94.00;;;;;;5042542;28;20480;-74
2022/04/22 09:09:19;;;;;;;0.70;0.70;;;11.30;93.10;;;;;;5032853;28;20125;-74
2022/04/22 09:11:45;;;;;;;0.90;0.90;;;11.10;93.80;;;;;;5041780;28;20032;-74
2022/04/22 09:14:20;;;;;;;0.30;0.30;;;11.20;93.40;;;;;;5043163;28;20099;-74
2022/04/22 09:16:47;;;;;;;0.20;0.20;;;11.20;93.90;;;;;;5031474;28;20044;-73
2022/04/22 09:19:13;;;;;;;0.20;0.20;;;11.50;93.90;;;;;;5043084;28;20485;-74
2022/04/22 09:21:39;;;;;;;0.20;0.20;;;11.90;92.70;;;;;;5032863;28;20029;-73
2022/04/22 09:24:13;;;;;;;13.27;4.53;;;12.00;92.10;;;;;;5031430;28;20041;-73
2022/04/22 09:26:39;;;;;;;0.20;0.20;;;11.80;91.80;;;;;;5041834;28;20048;-73
2022/04/22 09:29:05;;;;;;;0.93;0.93;;;11.70;92.60;;;;;;5041547;28;20029;-74
2022/04/22 09:31:45;;;;;;;0.38;0.38;;;11.90;92.30;;;;;;5030490;28;20040;-73
2022/04/22 09:34:10;;;;;;;1.42;1.38;;;12.00;92.20;;;;;;5042534;28;20025;-73
2022/04/22 09:44:50;;;;;;;3.42;2.38;;;12.50;91.20;;;;;;5042259;28;20037;-74
2022/04/22 09:47:16;;;;;;;5.68;2.13;;;12.30;90.50;;;;;;5029999;28;21352;-74
2022/04/22 09:49:45;;;;;;;1.55;1.35;;;12.30;91.10;;;;;;5033670;28;20164;-74
2022/04/22 09:52:11;;;;;;;1.85;1.65;;;12.50;91.00;;;;;;5041703;28;20547;-73
2022/04/22 09:54:40;;;;;;;0.20;0.20;;;12.70;90.60;;;;;;5041609;28;20408;-74
2022/04/22 09:57:06;;;;;;;0.28;0.28;;;12.60;91.00;;;;;;5031400;28;20048;-73
2022/04/22 09:59:33;;;;;;;1.45;1.02;;;12.80;90.50;;;;;;5041559;28;20142;-74
2022/04/22 10:02:04;;;;;;;1.58;1.48;;;12.70;90.30;;;;;;5040526;28;20041;-74
2022/04/22 10:04:31;;;;;;;2.15;1.95;;;12.60;90.40;;;;;;5041493;28;20449;-72
2022/04/22 10:07:01;;;;;;;5.70;4.40;;;12.60;90.10;;;;;;5044642;28;20060;-74
2022/04/22 10:09:28;;;;;;;0.10;0.10;;;12.60;90.50;;;;;;5053048;28;20104;-74
2022/04/22 10:11:57;;;;;;;4.35;2.42;;;12.70;90.60;;;;;;5034837;28;20043;-74
2022/04/22 10:14:38;;;;;;;6.60;4.38;;;12.90;90.10;;;;;;5053117;28;20032;-74
2022/04/22 10:17:05;;;;;;;1.77;1.70;;;12.80;90.40;;;;;;5052164;28;20017;-74
2022/04/22 10:19:33;;;;;;;0.30;0.30;;;12.90;89.80;;;;;;5052220;28;20032;-72
2022/04/22 10:22:00;;;;;;;0.20;0.20;;;13.00;89.70;;;;;;5052770;28;20108;-74
2022/04/22 10:24:28;;;;;;;0.30;0.30;;;13.10;89.50;;;;;;5035234;28;20032;-74
2022/04/22 10:26:54;;;;;;;5.60;1.85;;;13.10;89.80;;;;;;5051636;28;20029;-74
2022/04/22 10:29:20;;;;;;;0.20;0.20;;;12.90;89.30;;;;;;5034788;28;20029;-74
2022/04/22 10:31:47;;;;;;;1.08;1.08;;;13.20;89.10;;;;;;5034830;28;20052;-75
2022/04/22 10:34:13;;;;;;;0.65;0.65;;;13.20;87.90;;;;;;5045778;28;20492;-74
2022/04/22 10:36:40;;;;;;;2.15;2.03;;;13.20;88.30;;;;;;4998439;28;20025;-74
2022/04/22 10:39:06;;;;;;;1.75;0.95;;;13.20;88.60;;;;;;5015220;28;20036;-72
2022/04/22 10:41:50;;;;;;;1.85;1.17;;;13.30;87.20;;;;;;5014433;28;20412;-73
2022/04/22 10:47:13;;;;;;;0.40;0.40;;;13.20;87.70;;;;;;5052148;28;20111;-72
2022/04/22 10:49:40;;;;;;;4.85;1.95;;;13.30;88.00;;;;;;5110127;22;20135;-72
2022/04/22 10:52:19;;;;;;;0.20;0.20;;;13.40;86.90;;;;;;5032319;28;20430;-71
2022/04/22 10:54:54;;;;;;;0.50;0.50;;;13.40;87.30;;;;;;5032292;28;20329;-72
2022/04/22 10:57:29;;;;;;;0.30;0.30;;;13.30;87.60;;;;;;4998221;28;20130;-72
2022/04/22 11:00:07;;;;;;;5.63;3.53;;;13.50;86.10;;;;;;5031594;28;20029;-71
2022/04/22 11:02:34;;;;;;;0.30;0.30;;;13.40;86.30;;;;;;5032687;28;20025;-71
2022/04/22 11:05:18;;;;;;;1.17;1.08;;;13.10;87.30;;;;;;5034927;28;20054;-71
2022/04/22 11:07:50;;;;;;;0.20;0.20;;;13.30;86.70;;;;;;5037706;28;20060;-75
2022/04/22 11:10:19;;;;;;;0.22;0.22;;;13.20;86.80;;;;;;5014728;28;20221;-74
2022/04/22 11:12:55;;;;;;;0.65;0.65;;;13.20;86.30;;;;;;5013981;28;20036;-73
2022/04/22 11:15:43;;;;;;;7.97;3.10;;;13.30;86.60;;;;;;5014116;28;20432;-74
2022/04/22 11:18:09;;;;;;;0.68;0.68;;;13.40;85.00;;;;;;5015065;28;20048;-75
2022/04/22 11:20:36;;;;;;;2.72;1.20;;;13.30;84.70;;;;;;5031920;28;20033;-75
2022/04/22 11:23:03;;;;;;;0.75;0.75;;;13.30;84.70;;;;;;5014355;28;20096;-74
2022/04/22 11:25:29;;;;;;;3.10;2.50;;;13.30;85.10;;;;;;4997891;28;20029;-74
2022/04/22 11:27:56;;;;;;;1.42;1.33;;;13.10;86.30;;;;;;5014256;28;20068;-74
2022/04/22 11:30:24;;;;;;;1.00;1.00;;;13.00;87.50;;;;;;5032203;28;20029;-75
2022/04/22 11:33:07;;;;;;;3.38;3.17;;;13.10;87.40;;;;;;5039937;28;20261;-75
2022/04/22 11:35:34;;;;;;;0.20;0.20;;;13.00;86.90;;;;;;4997353;28;20083;-75
2022/04/22 11:38:04;;;;;;;0.38;0.38;;;12.90;87.70;;;;;;5012651;28;20082;-75
2022/04/22 11:40:35;;;;;;;0.30;0.30;;;13.10;87.50;;;;;;5017314;28;20024;-75
2022/04/22 11:43:14;;;;;;;0.57;0.57;;;13.20;88.20;;;;;;5038218;28;20155;-75
2022/04/22 11:45:46;;;;;;;1.60;1.55;;;13.40;86.40;;;;;;5031898;28;20085;-74
2022/04/22 11:48:13;;;;;;;3.33;2.53;;;13.50;86.10;;;;;;5047927;28;20532;-75
2022/04/22 11:50:44;;;;;;;0.20;0.20;;;13.10;86.40;;;;;;5031757;28;20033;-75
2022/04/22 11:53:22;;;;;;;0.32;0.32;;;13.30;86.10;;;;;;5032212;28;20029;-75
2022/04/22 11:55:49;;;;;;;2.95;2.13;;;13.50;84.30;;;;;;5031960;28;20018;-75
2022/04/22 11:58:17;;;;;;;0.20;0.20;;;13.50;84.00;;;;;;5048272;28;20499;-74
2022/04/22 12:06:14;;;;;;;0.40;0.40;;;13.40;85.10;;;;;;5015438;28;20025;-74
2022/04/22 12:08:55;;;;;;;1.83;1.73;;;13.50;84.20;;;;;;5051074;28;20029;-74
2022/04/22 12:11:22;;;;;;;0.80;0.77;;;13.50;84.60;;;;;;5024334;28;20030;-74
2022/04/22 12:13:49;;;;;;;4.28;1.50;;;13.50;83.90;;;;;;5013545;28;20032;-76
2022/04/22 12:16:19;;;;;;;24.23;7.40;;;13.60;83.20;;;;;;5030944;28;20038;-74
2022/04/22 12:18:50;;;;;;;10.15;2.97;;;13.40;84.50;;;;;;5031201;28;20330;-74
2022/04/22 12:21:19;;;;;;;0.70;0.70;;;13.40;84.80;;;;;;4993627;28;20478;-74
2022/04/22 12:23:47;;;;;;;3.97;1.83;;;13.30;85.30;;;;;;5010049;28;20056;-74
2022/04/22 12:26:34;;;;;;;0.10;0.10;;;13.50;85.40;;;;;;5011231;28;20421;-74
2022/04/22 12:29:10;;;;;;;1.88;1.77;;;13.80;84.70;;;;;;5014075;28;20073;-74
2022/04/22 12:31:44;;;;;;;4.75;1.30;;;13.90;83.60;;;;;;5014161;28;20085;-75
2022/04/22 12:34:15;;;;;;;1.75;1.55;;;13.80;83.80;;;;;;5015329;28;20494;-74
2022/04/22 12:36:54;;;;;;;1.00;0.90;;;13.70;84.30;;;;;;5015028;28;20025;-75
2022/04/22 12:39:52;;;;;;;0.95;0.95;;;13.80;83.90;;;;;;5050455;28;20468;-76
2022/04/22 12:42:18;;;;;;;0.20;0.20;;;14.00;83.50;;;;;;5000809;28;20090;-76
2022/04/22 12:53:34;;;;;;;5.72;2.97;;;14.10;83.20;;;;;;5054705;28;20029;-74
2022/04/22 12:56:03;;;;;;;;;;;14.20;82.00;;;;;;5054794;28;20433;-75
2022/04/22 12:58:29;;;;;;;0.38;0.38;;;14.30;81.70;;;;;;5054785;28;19975;-74
2022/04/22 13:00:55;;;;;;;2.30;2.13;;;14.30;82.00;;;;;;5054664;28;20029;-74
2022/04/22 13:03:21;;;;;;;0.28;0.28;;;14.30;81.60;;;;;;5054751;28;20032;-74
2022/04/22 13:05:51;;;;;;;0.60;0.60;;;14.30;81.20;;;;;;5054451;28;20559;-74
2022/04/22 13:08:17;;;;;;;1.13;1.02;;;14.20;81.30;;;;;;5054503;28;20021;-74
2022/04/22 13:10:43;;;;;;;0.20;0.20;;;14.10;81.80;;;;;;5036373;28;20171;-74
2022/04/22 13:13:09;;;;;;;11.75;4.07;;;14.00;82.80;;;;;;5036291;28;20174;-74
2022/04/22 13:15:35;;;;;;;1.55;0.95;;;14.00;81.90;;;;;;5054348;28;20021;-75
2022/04/22 13:18:01;;;;;;;1.77;1.67;;;14.10;82.00;;;;;;5036490;28;20074;-74
2022/04/22 13:20:27;;;;;;;0.57;0.52;;;14.10;81.50;;;;;;5054475;28;20404;-75
2022/04/22 13:22:52;;;;;;;0.20;0.20;;;14.20;82.10;;;;;;5054080;28;20033;-75
2022/04/22 13:25:19;;;;;;;10.82;5.60;;;14.40;82.70;;;;;;5053776;28;20025;-75
2022/04/22 13:27:46;;;;;;;0.90;0.80;;;14.10;81.70;;;;;;5036307;28;20029;-75
2022/04/22 13:30:15;;;;;;;0.63;0.63;;;14.10;82.40;;;;;;5036203;28;20031;-75
2022/04/22 13:32:40;;;;;;;0.75;0.75;;;14.10;81.90;;;;;;5035999;28;20112;-74
2022/04/22 13:35:07;;;;;;;3.50;3.10;;;14.30;81.00;;;;;;5053983;28;20048;-75
2022/04/22 13:37:33;;;;;;;2.30;2.10;;;14.30;81.80;;;;;;5053718;28;20101;-75
2022/04/22 13:39:59;;;;;;;1.30;1.20;;;14.20;81.60;;;;;;5053413;28;20025;-74
2022/04/22 13:42:25;;;;;;;0.20;0.20;;;14.10;82.70;;;;;;5036033;28;20104;-74
2022/04/22 13:53:04;;;;;;;2.38;0.90;;;14.20;82.60;;;;;;5053661;28;20021;-74
2022/04/22 13:55:30;;;;;;;0.10;0.10;;;14.20;82.30;;;;;;5036008;28;20028;-73
2022/04/22 13:57:57;;;;;;;1.40;1.05;;;14.20;82.60;;;;;;5036261;28;20029;-74
2022/04/22 14:00:23;;;;;;;1.02;0.75;;;14.20;83.00;;;;;;5036151;28;20071;-73
2022/04/22 14:02:49;;;;;;;0.35;0.35;;;14.10;82.50;;;;;;5054007;28;20036;-73
2022/04/22 14:05:21;;;;;;;0.40;0.40;;;14.00;83.50;;;;;;5053907;28;20021;-73
2022/04/22 14:07:48;;;;;;;1.35;1.25;;;14.10;83.40;;;;;;5053720;28;20021;-73
2022/04/22 14:10:15;;;;;;;1.52;1.30;;;14.20;83.20;;;;;;5014394;28;20060;-73
2022/04/22 14:12:41;;;;;;;1.55;1.45;;;14.20;84.00;;;;;;5014064;28;20465;-73